sensor_id;sensor_type;location;lat;lon;timestamp;P1;durP1;ratioP1;P2;durP2;ratioP2
37077;SDS011;22989;55.998;37.212;2022-11-15T00:01:44;4.45;;;1.00;;
37077;SDS011;22989;55.998;37.212;2022-11-15T00:04:28;4.20;;;1.02;;
37077;SDS011;22989;55.998;37.212;2022-11-15T00:07:12;3.78;;;1.00;;
37077;SDS011;22989;55.998;37.212;2022-11-15T00:09:56;1.48;;;0.80;;
37077;SDS011;22989;55.998;37.212;2022-11-15T00:12:40;2.53;;;0.70;;
37077;SDS011;22989;55.998;37.212;2022-11-15T00:15:24;1.70;;;0.90;;
37077;SDS011;22989;55.998;37.212;2022-11-15T00:18:14;2.33;;;0.80;;
37077;SDS011;22989;55.998;37.212;2022-11-15T00:21:03;2.55;;;0.90;;
37077;SDS011;22989;55.998;37.212;2022-11-15T00:23:46;4.07;;;0.90;;
37077;SDS011;22989;55.998;37.212;2022-11-15T00:26:30;2.80;;;0.88;;
37077;SDS011;22989;55.998;37.212;2022-11-15T00:29:14;3.47;;;0.93;;
37077;SDS011;22989;55.998;37.212;2022-11-15T00:31:59;6.63;;;0.90;;
37077;SDS011;22989;55.998;37.212;2022-11-15T00:34:43;4.20;;;0.93;;
37077;SDS011;22989;55.998;37.212;2022-11-15T00:37:27;2.70;;;1.00;;
37077;SDS011;22989;55.998;37.212;2022-11-15T00:40:13;2.05;;;0.90;;
37077;SDS011;22989;55.998;37.212;2022-11-15T00:42:58;3.95;;;1.10;;
37077;SDS011;22989;55.998;37.212;2022-11-15T00:45:42;4.43;;;1.13;;
37077;SDS011;22989;55.998;37.212;2022-11-15T00:48:26;4.57;;;1.00;;
37077;SDS011;22989;55.998;37.212;2022-11-15T00:51:10;1.73;;;0.80;;
37077;SDS011;22989;55.998;37.212;2022-11-15T00:53:54;3.80;;;0.90;;
37077;SDS011;22989;55.998;37.212;2022-11-15T00:56:38;3.78;;;1.10;;
37077;SDS011;22989;55.998;37.212;2022-11-15T00:59:22;4.20;;;1.00;;
37077;SDS011;22989;55.998;37.212;2022-11-15T01:02:06;4.45;;;1.20;;
37077;SDS011;22989;55.998;37.212;2022-11-15T01:04:50;3.50;;;1.00;;
37077;SDS011;22989;55.998;37.212;2022-11-15T01:07:34;5.68;;;1.10;;
37077;SDS011;22989;55.998;37.212;2022-11-15T01:10:19;3.10;;;0.90;;
37077;SDS011;22989;55.998;37.212;2022-11-15T01:13:03;3.15;;;1.00;;
37077;SDS011;22989;55.998;37.212;2022-11-15T01:15:47;2.38;;;0.82;;
37077;SDS011;22989;55.998;37.212;2022-11-15T01:18:31;7.07;;;1.10;;
37077;SDS011;22989;55.998;37.212;2022-11-15T01:21:16;3.08;;;1.20;;
37077;SDS011;22989;55.998;37.212;2022-11-15T01:24:01;4.13;;;1.02;;
37077;SDS011;22989;55.998;37.212;2022-11-15T01:26:45;1.27;;;0.70;;
37077;SDS011;22989;55.998;37.212;2022-11-15T01:29:29;3.72;;;1.00;;
37077;SDS011;22989;55.998;37.212;2022-11-15T01:32:13;3.42;;;0.88;;
37077;SDS011;22989;55.998;37.212;2022-11-15T01:34:57;3.03;;;0.95;;
37077;SDS011;22989;55.998;37.212;2022-11-15T01:37:41;3.25;;;1.00;;
37077;SDS011;22989;55.998;37.212;2022-11-15T01:40:25;5.80;;;1.10;;
37077;SDS011;22989;55.998;37.212;2022-11-15T01:49:11;5.18;;;1.20;;
37077;SDS011;22989;55.998;37.212;2022-11-15T01:51:57;7.15;;;1.27;;
37077;SDS011;22989;55.998;37.212;2022-11-15T01:54:42;8.93;;;1.15;;
37077;SDS011;22989;55.998;37.212;2022-11-15T01:57:26;6.20;;;0.90;;
37077;SDS011;22989;55.998;37.212;2022-11-15T02:00:10;3.08;;;1.02;;
37077;SDS011;22989;55.998;37.212;2022-11-15T02:02:55;1.67;;;1.10;;
37077;SDS011;22989;55.998;37.212;2022-11-15T02:05:39;4.75;;;1.13;;
37077;SDS011;22989;55.998;37.212;2022-11-15T02:08:23;3.60;;;1.08;;
37077;SDS011;22989;55.998;37.212;2022-11-15T02:11:08;2.50;;;1.00;;
37077;SDS011;22989;55.998;37.212;2022-11-15T02:13:52;3.30;;;0.90;;
37077;SDS011;22989;55.998;37.212;2022-11-15T02:31:06;4.18;;;0.90;;
37077;SDS011;22989;55.998;37.212;2022-11-15T02:36:40;4.15;;;1.30;;
37077;SDS011;22989;55.998;37.212;2022-11-15T02:42:18;3.90;;;1.10;;
37077;SDS011;22989;55.998;37.212;2022-11-15T02:45:30;3.92;;;1.10;;
37077;SDS011;22989;55.998;37.212;2022-11-15T02:48:15;4.75;;;1.65;;
37077;SDS011;22989;55.998;37.212;2022-11-15T02:50:59;2.47;;;1.10;;
37077;SDS011;22989;55.998;37.212;2022-11-15T02:53:44;8.27;;;1.38;;
37077;SDS011;22989;55.998;37.212;2022-11-15T02:56:28;4.70;;;1.13;;
37077;SDS011;22989;55.998;37.212;2022-11-15T03:05:15;4.05;;;1.08;;
37077;SDS011;22989;55.998;37.212;2022-11-15T03:10:46;4.03;;;1.50;;
37077;SDS011;22989;55.998;37.212;2022-11-15T03:13:38;6.05;;;1.20;;
37077;SDS011;22989;55.998;37.212;2022-11-15T03:16:34;4.15;;;1.52;;
37077;SDS011;22989;55.998;37.212;2022-11-15T03:19:30;8.25;;;1.50;;
37077;SDS011;22989;55.998;37.212;2022-11-15T03:22:16;5.93;;;1.40;;
37077;SDS011;22989;55.998;37.212;2022-11-15T03:25:02;8.55;;;1.90;;
37077;SDS011;22989;55.998;37.212;2022-11-15T03:27:49;3.83;;;1.30;;
37077;SDS011;22989;55.998;37.212;2022-11-15T03:30:34;4.55;;;1.48;;
37077;SDS011;22989;55.998;37.212;2022-11-15T03:33:20;4.63;;;1.35;;
37077;SDS011;22989;55.998;37.212;2022-11-15T03:36:05;3.60;;;1.02;;
37077;SDS011;22989;55.998;37.212;2022-11-15T03:38:49;3.67;;;1.23;;
37077;SDS011;22989;55.998;37.212;2022-11-15T03:41:37;5.00;;;1.23;;
37077;SDS011;22989;55.998;37.212;2022-11-15T03:50:03;6.35;;;1.27;;
37077;SDS011;22989;55.998;37.212;2022-11-15T03:52:48;4.38;;;1.27;;
37077;SDS011;22989;55.998;37.212;2022-11-15T03:55:33;5.65;;;1.40;;
37077;SDS011;22989;55.998;37.212;2022-11-15T03:58:17;6.72;;;1.25;;
37077;SDS011;22989;55.998;37.212;2022-11-15T04:01:01;3.25;;;1.40;;
37077;SDS011;22989;55.998;37.212;2022-11-15T04:03:45;4.40;;;1.42;;
37077;SDS011;22989;55.998;37.212;2022-11-15T04:06:29;3.75;;;1.08;;
37077;SDS011;22989;55.998;37.212;2022-11-15T04:09:13;4.97;;;1.67;;
37077;SDS011;22989;55.998;37.212;2022-11-15T04:11:57;1.95;;;1.02;;
37077;SDS011;22989;55.998;37.212;2022-11-15T04:14:41;8.45;;;1.20;;
37077;SDS011;22989;55.998;37.212;2022-11-15T04:17:49;5.90;;;1.25;;
37077;SDS011;22989;55.998;37.212;2022-11-15T04:20:33;4.00;;;1.55;;
37077;SDS011;22989;55.998;37.212;2022-11-15T04:23:36;2.63;;;1.50;;
37077;SDS011;22989;55.998;37.212;2022-11-15T04:26:38;6.22;;;1.20;;
37077;SDS011;22989;55.998;37.212;2022-11-15T04:29:22;22.38;;;1.92;;
37077;SDS011;22989;55.998;37.212;2022-11-15T04:32:19;8.63;;;1.42;;
37077;SDS011;22989;55.998;37.212;2022-11-15T04:35:03;10.57;;;2.05;;
37077;SDS011;22989;55.998;37.212;2022-11-15T04:37:47;13.48;;;2.00;;
37077;SDS011;22989;55.998;37.212;2022-11-15T04:40:31;5.80;;;1.40;;
37077;SDS011;22989;55.998;37.212;2022-11-15T04:43:15;4.10;;;1.08;;
37077;SDS011;22989;55.998;37.212;2022-11-15T04:45:59;9.32;;;1.40;;
37077;SDS011;22989;55.998;37.212;2022-11-15T04:48:43;5.43;;;1.80;;
37077;SDS011;22989;55.998;37.212;2022-11-15T04:51:27;6.70;;;1.38;;
37077;SDS011;22989;55.998;37.212;2022-11-15T04:54:12;6.90;;;1.27;;
37077;SDS011;22989;55.998;37.212;2022-11-15T04:56:55;4.85;;;1.65;;
37077;SDS011;22989;55.998;37.212;2022-11-15T04:59:39;8.02;;;1.58;;
37077;SDS011;22989;55.998;37.212;2022-11-15T05:02:23;23.77;;;2.58;;
37077;SDS011;22989;55.998;37.212;2022-11-15T05:05:07;17.00;;;1.75;;
37077;SDS011;22989;55.998;37.212;2022-11-15T05:07:51;3.88;;;1.30;;
37077;SDS011;22989;55.998;37.212;2022-11-15T05:10:35;5.80;;;1.38;;
37077;SDS011;22989;55.998;37.212;2022-11-15T05:13:19;14.82;;;2.45;;
37077;SDS011;22989;55.998;37.212;2022-11-15T05:16:03;1.50;;;1.20;;
37077;SDS011;22989;55.998;37.212;2022-11-15T05:18:50;3.92;;;0.98;;
37077;SDS011;22989;55.998;37.212;2022-11-15T05:21:34;2.88;;;1.33;;
37077;SDS011;22989;55.998;37.212;2022-11-15T05:24:18;6.55;;;1.55;;
37077;SDS011;22989;55.998;37.212;2022-11-15T05:27:02;7.43;;;2.05;;
37077;SDS011;22989;55.998;37.212;2022-11-15T05:29:46;4.78;;;1.58;;
37077;SDS011;22989;55.998;37.212;2022-11-15T05:32:30;6.10;;;1.30;;
37077;SDS011;22989;55.998;37.212;2022-11-15T05:35:33;5.43;;;1.25;;
37077;SDS011;22989;55.998;37.212;2022-11-15T05:38:18;2.55;;;1.30;;
37077;SDS011;22989;55.998;37.212;2022-11-15T05:41:02;16.02;;;2.10;;
37077;SDS011;22989;55.998;37.212;2022-11-15T05:43:46;8.63;;;1.50;;
37077;SDS011;22989;55.998;37.212;2022-11-15T05:46:32;11.63;;;1.50;;
37077;SDS011;22989;55.998;37.212;2022-11-15T05:49:17;22.00;;;2.20;;
37077;SDS011;22989;55.998;37.212;2022-11-15T05:52:03;9.70;;;1.60;;
37077;SDS011;22989;55.998;37.212;2022-11-15T05:54:48;9.88;;;1.95;;
37077;SDS011;22989;55.998;37.212;2022-11-15T05:57:32;12.80;;;2.78;;
37077;SDS011;22989;55.998;37.212;2022-11-15T06:00:16;19.08;;;3.08;;
37077;SDS011;22989;55.998;37.212;2022-11-15T06:03:00;13.93;;;2.92;;
37077;SDS011;22989;55.998;37.212;2022-11-15T06:05:44;15.95;;;2.72;;
37077;SDS011;22989;55.998;37.212;2022-11-15T06:08:28;15.82;;;2.67;;
37077;SDS011;22989;55.998;37.212;2022-11-15T06:11:12;16.95;;;2.58;;
37077;SDS011;22989;55.998;37.212;2022-11-15T06:13:56;17.65;;;2.40;;
37077;SDS011;22989;55.998;37.212;2022-11-15T06:16:40;7.60;;;2.35;;
37077;SDS011;22989;55.998;37.212;2022-11-15T06:19:24;6.13;;;2.35;;
37077;SDS011;22989;55.998;37.212;2022-11-15T06:22:08;9.98;;;2.13;;
37077;SDS011;22989;55.998;37.212;2022-11-15T06:24:53;8.65;;;1.80;;
37077;SDS011;22989;55.998;37.212;2022-11-15T06:27:37;11.68;;;2.00;;
37077;SDS011;22989;55.998;37.212;2022-11-15T06:30:21;6.45;;;1.80;;
37077;SDS011;22989;55.998;37.212;2022-11-15T06:33:05;9.25;;;2.03;;
37077;SDS011;22989;55.998;37.212;2022-11-15T06:35:50;10.02;;;2.00;;
37077;SDS011;22989;55.998;37.212;2022-11-15T06:38:34;15.35;;;1.90;;
37077;SDS011;22989;55.998;37.212;2022-11-15T06:41:17;6.60;;;1.88;;
37077;SDS011;22989;55.998;37.212;2022-11-15T06:44:02;7.80;;;1.70;;
37077;SDS011;22989;55.998;37.212;2022-11-15T06:46:46;16.77;;;2.13;;
37077;SDS011;22989;55.998;37.212;2022-11-15T06:49:30;4.82;;;2.38;;
37077;SDS011;22989;55.998;37.212;2022-11-15T06:52:14;7.97;;;2.08;;
37077;SDS011;22989;55.998;37.212;2022-11-15T06:54:58;9.35;;;1.75;;
37077;SDS011;22989;55.998;37.212;2022-11-15T06:57:46;7.13;;;1.55;;
37077;SDS011;22989;55.998;37.212;2022-11-15T07:00:30;9.18;;;1.65;;
37077;SDS011;22989;55.998;37.212;2022-11-15T07:03:14;6.05;;;1.65;;
37077;SDS011;22989;55.998;37.212;2022-11-15T07:05:58;8.82;;;1.55;;
37077;SDS011;22989;55.998;37.212;2022-11-15T07:08:42;9.27;;;1.80;;
37077;SDS011;22989;55.998;37.212;2022-11-15T07:11:26;7.82;;;1.38;;
37077;SDS011;22989;55.998;37.212;2022-11-15T07:14:10;16.45;;;1.80;;
37077;SDS011;22989;55.998;37.212;2022-11-15T07:16:54;5.65;;;2.03;;
37077;SDS011;22989;55.998;37.212;2022-11-15T07:19:38;4.80;;;1.60;;
37077;SDS011;22989;55.998;37.212;2022-11-15T07:22:22;4.30;;;1.92;;
37077;SDS011;22989;55.998;37.212;2022-11-15T07:25:06;10.25;;;1.90;;
37077;SDS011;22989;55.998;37.212;2022-11-15T07:27:54;9.10;;;2.33;;
37077;SDS011;22989;55.998;37.212;2022-11-15T07:30:38;25.50;;;2.53;;
37077;SDS011;22989;55.998;37.212;2022-11-15T07:33:22;11.60;;;2.15;;
37077;SDS011;22989;55.998;37.212;2022-11-15T07:36:07;38.25;;;2.72;;
37077;SDS011;22989;55.998;37.212;2022-11-15T07:38:51;5.65;;;2.03;;
37077;SDS011;22989;55.998;37.212;2022-11-15T07:41:35;12.40;;;2.10;;
37077;SDS011;22989;55.998;37.212;2022-11-15T07:44:19;7.82;;;2.00;;
37077;SDS011;22989;55.998;37.212;2022-11-15T07:47:03;10.40;;;2.60;;
37077;SDS011;22989;55.998;37.212;2022-11-15T07:49:47;7.45;;;2.08;;
37077;SDS011;22989;55.998;37.212;2022-11-15T07:52:32;11.13;;;2.28;;
37077;SDS011;22989;55.998;37.212;2022-11-15T07:55:16;7.72;;;2.00;;
37077;SDS011;22989;55.998;37.212;2022-11-15T07:58:04;22.35;;;2.80;;
37077;SDS011;22989;55.998;37.212;2022-11-15T08:00:48;9.38;;;2.15;;
37077;SDS011;22989;55.998;37.212;2022-11-15T08:03:33;6.68;;;1.80;;
37077;SDS011;22989;55.998;37.212;2022-11-15T08:06:17;20.67;;;2.63;;
37077;SDS011;22989;55.998;37.212;2022-11-15T08:09:01;7.97;;;1.98;;
37077;SDS011;22989;55.998;37.212;2022-11-15T08:11:45;14.50;;;1.90;;
37077;SDS011;22989;55.998;37.212;2022-11-15T08:14:29;18.02;;;3.53;;
37077;SDS011;22989;55.998;37.212;2022-11-15T08:17:13;23.55;;;2.80;;
37077;SDS011;22989;55.998;37.212;2022-11-15T08:19:58;9.73;;;2.33;;
37077;SDS011;22989;55.998;37.212;2022-11-15T08:22:43;12.30;;;2.60;;
37077;SDS011;22989;55.998;37.212;2022-11-15T08:25:28;6.93;;;2.20;;
37077;SDS011;22989;55.998;37.212;2022-11-15T08:28:12;12.30;;;2.00;;
37077;SDS011;22989;55.998;37.212;2022-11-15T08:30:57;4.40;;;1.88;;
37077;SDS011;22989;55.998;37.212;2022-11-15T08:33:42;6.63;;;1.95;;
37077;SDS011;22989;55.998;37.212;2022-11-15T08:36:26;11.20;;;2.30;;
37077;SDS011;22989;55.998;37.212;2022-11-15T08:39:10;6.90;;;1.88;;
37077;SDS011;22989;55.998;37.212;2022-11-15T08:41:56;13.75;;;2.45;;
37077;SDS011;22989;55.998;37.212;2022-11-15T08:44:44;9.23;;;2.20;;
37077;SDS011;22989;55.998;37.212;2022-11-15T08:47:28;4.75;;;1.70;;
37077;SDS011;22989;55.998;37.212;2022-11-15T08:50:12;8.27;;;2.05;;
37077;SDS011;22989;55.998;37.212;2022-11-15T08:52:56;6.95;;;2.45;;
37077;SDS011;22989;55.998;37.212;2022-11-15T08:55:40;4.53;;;2.20;;
37077;SDS011;22989;55.998;37.212;2022-11-15T08:58:24;13.07;;;2.35;;
37077;SDS011;22989;55.998;37.212;2022-11-15T09:01:19;11.57;;;2.83;;
37077;SDS011;22989;55.998;37.212;2022-11-15T09:04:03;7.25;;;2.45;;
37077;SDS011;22989;55.998;37.212;2022-11-15T09:06:47;6.97;;;2.30;;
37077;SDS011;22989;55.998;37.212;2022-11-15T09:09:31;17.92;;;2.55;;
37077;SDS011;22989;55.998;37.212;2022-11-15T09:12:15;9.55;;;2.88;;
37077;SDS011;22989;55.998;37.212;2022-11-15T09:14:59;4.72;;;2.13;;
37077;SDS011;22989;55.998;37.212;2022-11-15T09:17:43;8.27;;;2.78;;
37077;SDS011;22989;55.998;37.212;2022-11-15T09:20:27;5.75;;;2.15;;
37077;SDS011;22989;55.998;37.212;2022-11-15T09:23:11;14.55;;;3.08;;
37077;SDS011;22989;55.998;37.212;2022-11-15T09:26:03;15.65;;;2.75;;
37077;SDS011;22989;55.998;37.212;2022-11-15T09:28:48;7.43;;;3.10;;
37077;SDS011;22989;55.998;37.212;2022-11-15T09:31:32;32.97;;;4.25;;
37077;SDS011;22989;55.998;37.212;2022-11-15T09:34:16;11.88;;;3.22;;
37077;SDS011;22989;55.998;37.212;2022-11-15T09:37:00;11.90;;;2.80;;
37077;SDS011;22989;55.998;37.212;2022-11-15T09:39:44;10.05;;;2.50;;
37077;SDS011;22989;55.998;37.212;2022-11-15T09:48:48;12.05;;;2.38;;
37077;SDS011;22989;55.998;37.212;2022-11-15T09:52:03;10.57;;;2.28;;
37077;SDS011;22989;55.998;37.212;2022-11-15T09:57:13;7.18;;;2.30;;
37077;SDS011;22989;55.998;37.212;2022-11-15T10:00:21;8.23;;;2.30;;
37077;SDS011;22989;55.998;37.212;2022-11-15T10:02:51;7.32;;;2.35;;
37077;SDS011;22989;55.998;37.212;2022-11-15T10:10:29;9.63;;;2.30;;
37077;SDS011;22989;55.998;37.212;2022-11-15T10:12:55;20.33;;;2.55;;
37077;SDS011;22989;55.998;37.212;2022-11-15T10:15:20;8.02;;;2.05;;
37077;SDS011;22989;55.998;37.212;2022-11-15T10:20:26;12.10;;;2.90;;
37077;SDS011;22989;55.998;37.212;2022-11-15T10:23:02;12.25;;;3.03;;
37077;SDS011;22989;55.998;37.212;2022-11-15T10:25:30;7.90;;;2.00;;
37077;SDS011;22989;55.998;37.212;2022-11-15T10:27:57;5.55;;;1.90;;
37077;SDS011;22989;55.998;37.212;2022-11-15T10:30:29;10.68;;;2.70;;
37077;SDS011;22989;55.998;37.212;2022-11-15T10:32:55;11.70;;;2.38;;
37077;SDS011;22989;55.998;37.212;2022-11-15T10:35:25;14.43;;;2.80;;
37077;SDS011;22989;55.998;37.212;2022-11-15T10:37:51;9.23;;;2.40;;
37077;SDS011;22989;55.998;37.212;2022-11-15T10:40:20;6.35;;;2.30;;
37077;SDS011;22989;55.998;37.212;2022-11-15T10:42:47;12.40;;;2.13;;
37077;SDS011;22989;55.998;37.212;2022-11-15T10:45:33;6.38;;;2.00;;
37077;SDS011;22989;55.998;37.212;2022-11-15T10:50:45;11.85;;;2.17;;
37077;SDS011;22989;55.998;37.212;2022-11-15T10:53:30;8.82;;;2.33;;
37077;SDS011;22989;55.998;37.212;2022-11-15T10:55:58;14.45;;;2.45;;
37077;SDS011;22989;55.998;37.212;2022-11-15T11:00:52;13.40;;;2.63;;
37077;SDS011;22989;55.998;37.212;2022-11-15T11:03:34;11.57;;;3.00;;
37077;SDS011;22989;55.998;37.212;2022-11-15T11:06:05;7.73;;;3.03;;
37077;SDS011;22989;55.998;37.212;2022-11-15T11:08:30;5.32;;;2.22;;
37077;SDS011;22989;55.998;37.212;2022-11-15T11:11:01;7.85;;;2.70;;
37077;SDS011;22989;55.998;37.212;2022-11-15T11:13:39;13.40;;;2.65;;
37077;SDS011;22989;55.998;37.212;2022-11-15T11:18:46;14.73;;;3.00;;
37077;SDS011;22989;55.998;37.212;2022-11-15T11:21:15;7.72;;;3.47;;
37077;SDS011;22989;55.998;37.212;2022-11-15T11:33:50;8.43;;;2.97;;
37077;SDS011;22989;55.998;37.212;2022-11-15T11:38:49;8.93;;;4.05;;
37077;SDS011;22989;55.998;37.212;2022-11-15T11:42:16;7.28;;;3.47;;
37077;SDS011;22989;55.998;37.212;2022-11-15T11:49:10;8.93;;;3.92;;
37077;SDS011;22989;55.998;37.212;2022-11-15T11:51:43;10.55;;;3.53;;
37077;SDS011;22989;55.998;37.212;2022-11-15T11:57:16;14.57;;;3.83;;
37077;SDS011;22989;55.998;37.212;2022-11-15T11:59:50;13.13;;;5.22;;
37077;SDS011;22989;55.998;37.212;2022-11-15T12:02:31;13.35;;;4.03;;
37077;SDS011;22989;55.998;37.212;2022-11-15T12:07:43;10.55;;;4.07;;
37077;SDS011;22989;55.998;37.212;2022-11-15T12:15:27;17.48;;;4.57;;
37077;SDS011;22989;55.998;37.212;2022-11-15T12:17:54;9.60;;;3.60;;
37077;SDS011;22989;55.998;37.212;2022-11-15T12:20:24;10.57;;;3.67;;
37077;SDS011;22989;55.998;37.212;2022-11-15T12:22:58;11.93;;;4.53;;
37077;SDS011;22989;55.998;37.212;2022-11-15T12:25:32;10.77;;;4.53;;
37077;SDS011;22989;55.998;37.212;2022-11-15T12:28:19;15.35;;;4.50;;
37077;SDS011;22989;55.998;37.212;2022-11-15T12:30:50;14.38;;;4.78;;
37077;SDS011;22989;55.998;37.212;2022-11-15T12:34:00;12.05;;;4.82;;
37077;SDS011;22989;55.998;37.212;2022-11-15T12:36:09;12.43;;;4.90;;
37077;SDS011;22989;55.998;37.212;2022-11-15T12:41:14;11.68;;;4.50;;
37077;SDS011;22989;55.998;37.212;2022-11-15T12:43:43;11.57;;;4.40;;
37077;SDS011;22989;55.998;37.212;2022-11-15T12:46:13;10.02;;;4.82;;
37077;SDS011;22989;55.998;37.212;2022-11-15T12:51:09;18.95;;;4.90;;
37077;SDS011;22989;55.998;37.212;2022-11-15T12:53:34;9.85;;;4.40;;
37077;SDS011;22989;55.998;37.212;2022-11-15T13:06:47;16.48;;;5.78;;
37077;SDS011;22989;55.998;37.212;2022-11-15T13:12:01;15.23;;;5.07;;
37077;SDS011;22989;55.998;37.212;2022-11-15T13:19:45;11.95;;;4.97;;
37077;SDS011;22989;55.998;37.212;2022-11-15T13:22:11;20.50;;;5.70;;
37077;SDS011;22989;55.998;37.212;2022-11-15T13:24:56;12.00;;;5.25;;
37077;SDS011;22989;55.998;37.212;2022-11-15T13:27:22;13.70;;;5.65;;
37077;SDS011;22989;55.998;37.212;2022-11-15T13:29:48;23.17;;;6.15;;
37077;SDS011;22989;55.998;37.212;2022-11-15T13:32:13;13.00;;;5.13;;
37077;SDS011;22989;55.998;37.212;2022-11-15T13:34:47;13.02;;;5.43;;
37077;SDS011;22989;55.998;37.212;2022-11-15T13:39:44;12.75;;;5.63;;
37077;SDS011;22989;55.998;37.212;2022-11-15T13:42:14;11.18;;;5.00;;
37077;SDS011;22989;55.998;37.212;2022-11-15T13:44:40;10.32;;;4.90;;
37077;SDS011;22989;55.998;37.212;2022-11-15T13:47:19;12.90;;;5.18;;
37077;SDS011;22989;55.998;37.212;2022-11-15T13:49:44;19.38;;;5.68;;
37077;SDS011;22989;55.998;37.212;2022-11-15T13:52:11;13.90;;;5.40;;
37077;SDS011;22989;55.998;37.212;2022-11-15T13:57:19;12.85;;;5.47;;
37077;SDS011;22989;55.998;37.212;2022-11-15T13:59:56;17.02;;;5.28;;
37077;SDS011;22989;55.998;37.212;2022-11-15T14:02:30;16.45;;;5.40;;
37077;SDS011;22989;55.998;37.212;2022-11-15T14:05:13;13.80;;;6.35;;
37077;SDS011;22989;55.998;37.212;2022-11-15T14:07:40;17.90;;;5.68;;
37077;SDS011;22989;55.998;37.212;2022-11-15T14:10:25;12.50;;;5.35;;
37077;SDS011;22989;55.998;37.212;2022-11-15T14:12:51;20.73;;;5.78;;
37077;SDS011;22989;55.998;37.212;2022-11-15T14:15:39;16.45;;;5.75;;
37077;SDS011;22989;55.998;37.212;2022-11-15T14:18:04;13.98;;;5.47;;
37077;SDS011;22989;55.998;37.212;2022-11-15T14:20:34;16.42;;;5.93;;
37077;SDS011;22989;55.998;37.212;2022-11-15T14:23:03;13.85;;;5.80;;
37077;SDS011;22989;55.998;37.212;2022-11-15T14:25:31;16.63;;;7.00;;
37077;SDS011;22989;55.998;37.212;2022-11-15T14:28:14;15.48;;;5.70;;
37077;SDS011;22989;55.998;37.212;2022-11-15T14:30:40;14.82;;;6.03;;
37077;SDS011;22989;55.998;37.212;2022-11-15T14:35:44;15.52;;;6.45;;
37077;SDS011;22989;55.998;37.212;2022-11-15T14:38:10;18.20;;;7.32;;
37077;SDS011;22989;55.998;37.212;2022-11-15T14:40:35;16.88;;;6.75;;
37077;SDS011;22989;55.998;37.212;2022-11-15T14:43:01;18.20;;;7.55;;
37077;SDS011;22989;55.998;37.212;2022-11-15T14:45:26;22.08;;;7.75;;
37077;SDS011;22989;55.998;37.212;2022-11-15T14:47:52;23.83;;;8.60;;
37077;SDS011;22989;55.998;37.212;2022-11-15T14:50:19;16.92;;;8.38;;
37077;SDS011;22989;55.998;37.212;2022-11-15T14:52:45;17.77;;;8.80;;
37077;SDS011;22989;55.998;37.212;2022-11-15T14:57:42;33.08;;;9.70;;
37077;SDS011;22989;55.998;37.212;2022-11-15T15:00:08;16.70;;;8.45;;
37077;SDS011;22989;55.998;37.212;2022-11-15T15:02:38;21.05;;;8.77;;
37077;SDS011;22989;55.998;37.212;2022-11-15T15:05:38;21.30;;;9.43;;
37077;SDS011;22989;55.998;37.212;2022-11-15T15:07:55;19.85;;;7.95;;
37077;SDS011;22989;55.998;37.212;2022-11-15T15:10:21;23.48;;;8.85;;
37077;SDS011;22989;55.998;37.212;2022-11-15T15:12:46;17.95;;;8.40;;
37077;SDS011;22989;55.998;37.212;2022-11-15T15:15:16;15.35;;;7.40;;
37077;SDS011;22989;55.998;37.212;2022-11-15T15:17:42;18.95;;;8.02;;
37077;SDS011;22989;55.998;37.212;2022-11-15T15:20:08;21.15;;;8.60;;
37077;SDS011;22989;55.998;37.212;2022-11-15T15:22:34;30.65;;;8.45;;
37077;SDS011;22989;55.998;37.212;2022-11-15T15:24:59;19.95;;;8.05;;
37077;SDS011;22989;55.998;37.212;2022-11-15T15:27:24;23.90;;;8.30;;
37077;SDS011;22989;55.998;37.212;2022-11-15T15:29:50;15.93;;;7.85;;
37077;SDS011;22989;55.998;37.212;2022-11-15T15:32:15;23.42;;;7.50;;
37077;SDS011;22989;55.998;37.212;2022-11-15T15:34:41;15.05;;;6.85;;
37077;SDS011;22989;55.998;37.212;2022-11-15T15:37:09;22.77;;;6.85;;
37077;SDS011;22989;55.998;37.212;2022-11-15T15:39:35;10.73;;;5.90;;
37077;SDS011;22989;55.998;37.212;2022-11-15T15:42:00;17.67;;;6.75;;
37077;SDS011;22989;55.998;37.212;2022-11-15T15:44:26;14.80;;;7.28;;
37077;SDS011;22989;55.998;37.212;2022-11-15T15:46:52;20.17;;;7.55;;
37077;SDS011;22989;55.998;37.212;2022-11-15T15:49:17;21.73;;;8.23;;
37077;SDS011;22989;55.998;37.212;2022-11-15T15:51:43;18.92;;;7.80;;
37077;SDS011;22989;55.998;37.212;2022-11-15T15:54:08;21.08;;;8.45;;
37077;SDS011;22989;55.998;37.212;2022-11-15T15:56:34;17.83;;;8.98;;
37077;SDS011;22989;55.998;37.212;2022-11-15T15:58:59;22.67;;;10.43;;
37077;SDS011;22989;55.998;37.212;2022-11-15T16:01:25;19.55;;;8.95;;
37077;SDS011;22989;55.998;37.212;2022-11-15T16:03:50;25.75;;;9.23;;
37077;SDS011;22989;55.998;37.212;2022-11-15T16:09:00;20.38;;;9.25;;
37077;SDS011;22989;55.998;37.212;2022-11-15T16:11:25;35.13;;;11.63;;
37077;SDS011;22989;55.998;37.212;2022-11-15T16:13:51;27.05;;;10.73;;
37077;SDS011;22989;55.998;37.212;2022-11-15T16:16:16;22.00;;;9.65;;
37077;SDS011;22989;55.998;37.212;2022-11-15T16:18:42;15.55;;;8.77;;
37077;SDS011;22989;55.998;37.212;2022-11-15T16:21:08;25.48;;;10.50;;
37077;SDS011;22989;55.998;37.212;2022-11-15T16:23:33;19.75;;;9.50;;
37077;SDS011;22989;55.998;37.212;2022-11-15T16:25:59;15.88;;;7.40;;
37077;SDS011;22989;55.998;37.212;2022-11-15T16:28:30;15.07;;;7.38;;
37077;SDS011;22989;55.998;37.212;2022-11-15T16:31:08;13.02;;;6.80;;
37077;SDS011;22989;55.998;37.212;2022-11-15T16:33:34;13.68;;;7.00;;
37077;SDS011;22989;55.998;37.212;2022-11-15T16:36:00;20.35;;;7.18;;
37077;SDS011;22989;55.998;37.212;2022-11-15T16:38:25;12.50;;;7.03;;
37077;SDS011;22989;55.998;37.212;2022-11-15T16:40:51;15.68;;;7.05;;
37077;SDS011;22989;55.998;37.212;2022-11-15T16:43:16;18.35;;;7.75;;
37077;SDS011;22989;55.998;37.212;2022-11-15T16:45:42;16.63;;;6.70;;
37077;SDS011;22989;55.998;37.212;2022-11-15T16:50:39;14.38;;;6.80;;
37077;SDS011;22989;55.998;37.212;2022-11-15T16:53:05;15.88;;;7.10;;
37077;SDS011;22989;55.998;37.212;2022-11-15T16:55:30;15.60;;;7.32;;
37077;SDS011;22989;55.998;37.212;2022-11-15T16:57:56;16.70;;;7.57;;
37077;SDS011;22989;55.998;37.212;2022-11-15T17:00:25;15.32;;;7.30;;
37077;SDS011;22989;55.998;37.212;2022-11-15T17:02:51;15.45;;;8.23;;
37077;SDS011;22989;55.998;37.212;2022-11-15T17:05:17;19.88;;;9.65;;
37077;SDS011;22989;55.998;37.212;2022-11-15T17:07:45;21.15;;;11.25;;
37077;SDS011;22989;55.998;37.212;2022-11-15T17:10:10;16.00;;;8.48;;
37077;SDS011;22989;55.998;37.212;2022-11-15T17:12:36;22.40;;;12.30;;
37077;SDS011;22989;55.998;37.212;2022-11-15T17:15:03;19.75;;;9.95;;
37077;SDS011;22989;55.998;37.212;2022-11-15T17:17:29;18.27;;;9.40;;
37077;SDS011;22989;55.998;37.212;2022-11-15T17:19:54;25.10;;;10.82;;
37077;SDS011;22989;55.998;37.212;2022-11-15T17:22:20;19.92;;;10.23;;
37077;SDS011;22989;55.998;37.212;2022-11-15T17:24:45;20.27;;;9.68;;
37077;SDS011;22989;55.998;37.212;2022-11-15T17:27:11;19.27;;;11.02;;
37077;SDS011;22989;55.998;37.212;2022-11-15T17:29:36;19.05;;;9.30;;
37077;SDS011;22989;55.998;37.212;2022-11-15T17:32:02;17.38;;;9.27;;
37077;SDS011;22989;55.998;37.212;2022-11-15T17:34:28;19.27;;;9.80;;
37077;SDS011;22989;55.998;37.212;2022-11-15T17:36:53;19.42;;;10.52;;
37077;SDS011;22989;55.998;37.212;2022-11-15T17:39:20;16.33;;;9.63;;
37077;SDS011;22989;55.998;37.212;2022-11-15T17:41:48;25.20;;;11.93;;
37077;SDS011;22989;55.998;37.212;2022-11-15T17:44:14;22.00;;;10.90;;
37077;SDS011;22989;55.998;37.212;2022-11-15T17:46:39;18.27;;;8.27;;